sensor_id;sensor_type;location;lat;lon;timestamp;pressure;altitude;pressure_sealevel;temperature;humidity
2036;BME280;23642;42.658;23.350;2023-02-16T00:00:57;45708.69;;;-146.31;100.00
2036;BME280;23642;42.658;23.350;2023-02-16T00:03:24;45675.72;;;-146.31;100.00
2036;BME280;23642;42.658;23.350;2023-02-16T00:05:56;45578.94;;;-146.31;100.00
2036;BME280;23642;42.658;23.350;2023-02-16T00:08:24;45585.13;;;-146.31;100.00
2036;BME280;23642;42.658;23.350;2023-02-16T00:10:51;45541.88;;;-146.31;100.00
2036;BME280;23642;42.658;23.350;2023-02-16T00:13:31;45498.63;;;-146.31;100.00
2036;BME280;23642;42.658;23.350;2023-02-16T00:16:16;45451.25;;;-146.31;100.00
2036;BME280;23642;42.658;23.350;2023-02-16T00:18:43;45428.59;;;-146.31;100.00
2036;BME280;23642;42.658;23.350;2023-02-16T00:21:10;45422.41;;;-146.31;100.00
2036;BME280;23642;42.658;23.350;2023-02-16T00:23:38;45401.81;;;-146.31;100.00
2036;BME280;23642;42.658;23.350;2023-02-16T00:26:12;45387.41;;;-146.31;100.00
2036;BME280;23642;42.658;23.350;2023-02-16T00:28:39;45362.69;;;-146.31;100.00
2036;BME280;23642;42.658;23.350;2023-02-16T00:31:14;45309.16;;;-146.31;100.00
2036;BME280;23642;42.658;23.350;2023-02-16T00:33:41;45286.50;;;-146.31;100.00
2036;BME280;23642;42.658;23.350;2023-02-16T00:36:08;45298.88;;;-146.31;100.00
2036;BME280;23642;42.658;23.350;2023-02-16T00:38:35;45241.22;;;-146.31;100.00
2036;BME280;23642;42.658;23.350;2023-02-16T00:41:03;45267.97;;;-146.31;100.00
2036;BME280;23642;42.658;23.350;2023-02-16T00:43:50;45294.75;;;-146.31;100.00
2036;BME280;23642;42.658;23.350;2023-02-16T00:46:19;45267.97;;;-146.31;100.00
2036;BME280;23642;42.658;23.350;2023-02-16T00:48:46;45296.81;;;-146.31;100.00
2036;BME280;23642;42.658;23.350;2023-02-16T00:51:13;45309.16;;;-146.31;100.00
2036;BME280;23642;42.658;23.350;2023-02-16T00:53:40;45296.81;;;-146.31;100.00
2036;BME280;23642;42.658;23.350;2023-02-16T00:56:12;45323.56;;;-146.31;100.00
2036;BME280;23642;42.658;23.350;2023-02-16T00:58:41;45387.41;;;-146.31;100.00
2036;BME280;23642;42.658;23.350;2023-02-16T01:01:12;45416.25;;;-146.31;100.00
2036;BME280;23642;42.658;23.350;2023-02-16T01:03:40;45401.81;;;-146.31;100.00
2036;BME280;23642;42.658;23.350;2023-02-16T01:06:08;45418.31;;;-146.31;100.00
2036;BME280;23642;42.658;23.350;2023-02-16T01:08:54;45459.50;;;-146.31;100.00
2036;BME280;23642;42.658;23.350;2023-02-16T01:11:45;45410.06;;;-146.31;100.00
2036;BME280;23642;42.658;23.350;2023-02-16T01:14:12;45424.47;;;-146.31;100.00
2036;BME280;23642;42.658;23.350;2023-02-16T01:16:40;45401.81;;;-146.31;100.00
2036;BME280;23642;42.658;23.350;2023-02-16T01:19:09;45389.47;;;-146.31;100.00
2036;BME280;23642;42.658;23.350;2023-02-16T01:21:36;45362.69;;;-146.31;100.00
2036;BME280;23642;42.658;23.350;2023-02-16T01:24:03;45358.59;;;-146.31;100.00
2036;BME280;23642;42.658;23.350;2023-02-16T01:26:31;45263.84;;;-146.31;100.00
2036;BME280;23642;42.658;23.350;2023-02-16T01:29:04;45327.69;;;-146.31;100.00
2036;BME280;23642;42.658;23.350;2023-02-16T01:31:30;45284.44;;;-146.31;100.00
2036;BME280;23642;42.658;23.350;2023-02-16T01:33:57;45259.75;;;-146.31;100.00
2036;BME280;23642;42.658;23.350;2023-02-16T01:36:30;45222.66;;;-146.31;100.00
2036;BME280;23642;42.658;23.350;2023-02-16T01:38:58;45204.13;;;-146.31;100.00
2036;BME280;23642;42.658;23.350;2023-02-16T01:44:22;45183.53;;;-146.31;100.00
2036;BME280;23642;42.658;23.350;2023-02-16T01:46:51;45150.59;;;-146.31;100.00
2036;BME280;23642;42.658;23.350;2023-02-16T01:49:20;45154.72;;;-146.31;100.00
2036;BME280;23642;42.658;23.350;2023-02-16T01:51:52;45162.97;;;-146.31;100.00
2036;BME280;23642;42.658;23.350;2023-02-16T01:54:30;45210.31;;;-146.31;100.00
2036;BME280;23642;42.658;23.350;2023-02-16T01:57:03;45169.13;;;-146.31;100.00
2036;BME280;23642;42.658;23.350;2023-02-16T01:59:40;45245.31;;;-146.31;100.00
2036;BME280;23642;42.658;23.350;2023-02-16T02:02:26;45249.44;;;-146.31;100.00
2036;BME280;23642;42.658;23.350;2023-02-16T02:04:58;45265.91;;;-146.31;100.00
2036;BME280;23642;42.658;23.350;2023-02-16T02:07:48;45286.50;;;-146.31;100.00
2036;BME280;23642;42.658;23.350;2023-02-16T02:10:22;45300.91;;;-146.31;100.00
2036;BME280;23642;42.658;23.350;2023-02-16T02:12:54;45317.41;;;-146.31;100.00
2036;BME280;23642;42.658;23.350;2023-02-16T02:15:25;45278.28;;;-146.31;100.00
2036;BME280;23642;42.658;23.350;2023-02-16T02:17:55;45280.34;;;-146.31;100.00
2036;BME280;23642;42.658;23.350;2023-02-16T02:20:26;45243.25;;;-146.31;100.00
2036;BME280;23642;42.658;23.350;2023-02-16T02:23:35;45247.38;;;-146.31;100.00
2036;BME280;23642;42.658;23.350;2023-02-16T02:26:40;45214.44;;;-146.31;100.00
2036;BME280;23642;42.658;23.350;2023-02-16T02:32:15;45185.59;;;-146.31;100.00
2036;BME280;23642;42.658;23.350;2023-02-16T02:35:02;45144.44;;;-146.31;100.00
2036;BME280;23642;42.658;23.350;2023-02-16T02:37:45;45080.59;;;-146.31;100.00
2036;BME280;23642;42.658;23.350;2023-02-16T02:40:17;45115.59;;;-146.31;100.00
2036;BME280;23642;42.658;23.350;2023-02-16T02:42:59;45020.88;;;-146.31;100.00
2036;BME280;23642;42.658;23.350;2023-02-16T02:45:33;45022.94;;;-146.31;100.00
2036;BME280;23642;42.658;23.350;2023-02-16T02:48:02;44959.09;;;-146.31;100.00
2036;BME280;23642;42.658;23.350;2023-02-16T02:50:45;44959.09;;;-146.31;100.00
2036;BME280;23642;42.658;23.350;2023-02-16T02:53:27;44946.75;;;-146.31;100.00
2036;BME280;23642;42.658;23.350;2023-02-16T02:55:57;44901.44;;;-146.31;100.00
2036;BME280;23642;42.658;23.350;2023-02-16T02:58:45;44829.38;;;-146.31;100.00
2036;BME280;23642;42.658;23.350;2023-02-16T03:01:32;44796.44;;;-146.31;100.00
2036;BME280;23642;42.658;23.350;2023-02-16T03:04:01;44751.16;;;-146.31;100.00
2036;BME280;23642;42.658;23.350;2023-02-16T03:06:32;44674.97;;;-146.31;100.00
2036;BME280;23642;42.658;23.350;2023-02-16T03:09:03;44631.72;;;-146.31;100.00
2036;BME280;23642;42.658;23.350;2023-02-16T03:11:33;44584.38;;;-146.31;100.00
2036;BME280;23642;42.658;23.350;2023-02-16T03:14:22;44516.44;;;-146.31;100.00
2036;BME280;23642;42.658;23.350;2023-02-16T03:16:53;44469.09;;;-146.31;100.00
2036;BME280;23642;42.658;23.350;2023-02-16T03:19:40;44485.56;;;-146.31;100.00
2036;BME280;23642;42.658;23.350;2023-02-16T03:22:26;44460.84;;;-146.31;100.00
2036;BME280;23642;42.658;23.350;2023-02-16T03:25:11;44448.50;;;-146.31;100.00
2036;BME280;23642;42.658;23.350;2023-02-16T03:27:57;44440.25;;;-146.31;100.00
2036;BME280;23642;42.658;23.350;2023-02-16T03:30:45;44413.50;;;-146.31;100.00
2036;BME280;23642;42.658;23.350;2023-02-16T03:33:13;44366.16;;;-146.31;100.00
2036;BME280;23642;42.658;23.350;2023-02-16T03:35:40;44397.03;;;-146.31;100.00
2036;BME280;23642;42.658;23.350;2023-02-16T03:38:08;44378.50;;;-146.31;100.00
2036;BME280;23642;42.658;23.350;2023-02-16T03:40:36;44390.84;;;-146.31;100.00
2036;BME280;23642;42.658;23.350;2023-02-16T03:43:06;44417.63;;;-146.31;100.00
2036;BME280;23642;42.658;23.350;2023-02-16T03:45:35;44436.16;;;-146.31;100.00
2036;BME280;23642;42.658;23.350;2023-02-16T03:48:04;44446.44;;;-146.31;100.00
2036;BME280;23642;42.658;23.350;2023-02-16T03:50:31;44448.50;;;-146.31;100.00
2036;BME280;23642;42.658;23.350;2023-02-16T03:52:58;44452.63;;;-146.31;100.00
2036;BME280;23642;42.658;23.350;2023-02-16T03:55:32;44448.50;;;-146.31;100.00
2036;BME280;23642;42.658;23.350;2023-02-16T03:57:59;44419.69;;;-146.31;100.00
2036;BME280;23642;42.658;23.350;2023-02-16T04:00:26;44366.16;;;-146.31;100.00
2036;BME280;23642;42.658;23.350;2023-02-16T04:02:52;44316.75;;;-146.31;100.00
2036;BME280;23642;42.658;23.350;2023-02-16T04:05:20;44308.50;;;-146.31;100.00
2036;BME280;23642;42.658;23.350;2023-02-16T04:07:47;44287.94;;;-146.31;100.00
2036;BME280;23642;42.658;23.350;2023-02-16T04:10:14;44333.22;;;-146.31;100.00
2036;BME280;23642;42.658;23.350;2023-02-16T04:12:41;44296.16;;;-146.31;100.00
2036;BME280;23642;42.658;23.350;2023-02-16T04:15:09;44279.69;;;-146.31;100.00
2036;BME280;23642;42.658;23.350;2023-02-16T04:17:36;44308.50;;;-146.31;100.00
2036;BME280;23642;42.658;23.350;2023-02-16T04:20:03;44302.34;;;-146.31;100.00
2036;BME280;23642;42.658;23.350;2023-02-16T04:22:32;44304.41;;;-146.31;100.00
2036;BME280;23642;42.658;23.350;2023-02-16T04:24:58;44335.28;;;-146.31;100.00
2036;BME280;23642;42.658;23.350;2023-02-16T04:27:25;44349.69;;;-146.31;100.00
2036;BME280;23642;42.658;23.350;2023-02-16T04:29:52;44310.56;;;-146.31;100.00
2036;BME280;23642;42.658;23.350;2023-02-16T04:32:19;44324.97;;;-146.31;100.00
2036;BME280;23642;42.658;23.350;2023-02-16T04:34:46;44343.50;;;-146.31;100.00
2036;BME280;23642;42.658;23.350;2023-02-16T04:37:12;44382.63;;;-146.31;100.00
2036;BME280;23642;42.658;23.350;2023-02-16T04:39:40;44390.84;;;-146.31;100.00
2036;BME280;23642;42.658;23.350;2023-02-16T04:42:07;44423.78;;;-146.31;100.00
2036;BME280;23642;42.658;23.350;2023-02-16T04:44:34;44394.97;;;-146.31;100.00
2036;BME280;23642;42.658;23.350;2023-02-16T04:47:03;44378.50;;;-146.31;100.00
2036;BME280;23642;42.658;23.350;2023-02-16T04:49:39;44454.69;;;-146.31;100.00
2036;BME280;23642;42.658;23.350;2023-02-16T04:52:06;44444.38;;;-146.31;100.00
2036;BME280;23642;42.658;23.350;2023-02-16T04:54:33;44487.63;;;-146.31;100.00
2036;BME280;23642;42.658;23.350;2023-02-16T04:57:01;44489.69;;;-146.31;100.00
2036;BME280;23642;42.658;23.350;2023-02-16T04:59:28;44489.69;;;-146.31;100.00
2036;BME280;23642;42.658;23.350;2023-02-16T05:01:54;44493.78;;;-146.31;100.00
2036;BME280;23642;42.658;23.350;2023-02-16T05:04:22;44487.63;;;-146.31;100.00
2036;BME280;23642;42.658;23.350;2023-02-16T05:06:49;44448.50;;;-146.31;100.00
2036;BME280;23642;42.658;23.350;2023-02-16T05:09:16;44382.63;;;-146.31;100.00
2036;BME280;23642;42.658;23.350;2023-02-16T05:11:42;44392.91;;;-146.31;100.00
2036;BME280;23642;42.658;23.350;2023-02-16T05:14:30;44345.56;;;-146.31;100.00
2036;BME280;23642;42.658;23.350;2023-02-16T05:17:14;44322.91;;;-146.31;100.00
2036;BME280;23642;42.658;23.350;2023-02-16T05:19:42;44318.81;;;-146.31;100.00
2036;BME280;23642;42.658;23.350;2023-02-16T05:22:10;44312.63;;;-146.31;100.00
2036;BME280;23642;42.658;23.350;2023-02-16T05:24:37;44269.41;;;-146.31;100.00
2036;BME280;23642;42.658;23.350;2023-02-16T05:27:06;44263.22;;;-146.31;100.00
2036;BME280;23642;42.658;23.350;2023-02-16T05:29:35;44259.09;;;-146.31;100.00
2036;BME280;23642;42.658;23.350;2023-02-16T05:32:01;44271.47;;;-146.31;100.00
2036;BME280;23642;42.658;23.350;2023-02-16T05:34:28;44230.28;;;-146.31;100.00
2036;BME280;23642;42.658;23.350;2023-02-16T05:36:55;44242.63;;;-146.31;100.00
2036;BME280;23642;42.658;23.350;2023-02-16T05:39:22;44193.22;;;-146.31;100.00
2036;BME280;23642;42.658;23.350;2023-02-16T05:41:49;44180.88;;;-146.31;100.00
2036;BME280;23642;42.658;23.350;2023-02-16T05:44:16;44102.66;;;-146.31;100.00
2036;BME280;23642;42.658;23.350;2023-02-16T05:46:44;44098.53;;;-146.31;100.00
2036;BME280;23642;42.658;23.350;2023-02-16T05:49:19;44112.94;;;-146.31;100.00
2036;BME280;23642;42.658;23.350;2023-02-16T05:51:46;44102.66;;;-146.31;100.00
2036;BME280;23642;42.658;23.350;2023-02-16T05:54:13;44061.47;;;-146.31;100.00
2036;BME280;23642;42.658;23.350;2023-02-16T05:56:43;44055.31;;;-146.31;100.00
2036;BME280;23642;42.658;23.350;2023-02-16T05:59:11;44047.06;;;-146.31;100.00
2036;BME280;23642;42.658;23.350;2023-02-16T06:01:38;44032.66;;;-146.31;100.00
2036;BME280;23642;42.658;23.350;2023-02-16T06:04:07;44022.38;;;-146.31;100.00
2036;BME280;23642;42.658;23.350;2023-02-16T06:06:35;43997.66;;;-146.31;100.00
2036;BME280;23642;42.658;23.350;2023-02-16T06:09:02;43968.84;;;-146.31;100.00
2036;BME280;23642;42.658;23.350;2023-02-16T06:11:29;44003.84;;;-146.31;100.00
2036;BME280;23642;42.658;23.350;2023-02-16T06:14:03;43979.13;;;-146.31;100.00
2036;BME280;23642;42.658;23.350;2023-02-16T06:16:33;43975.03;;;-146.31;100.00
2036;BME280;23642;42.658;23.350;2023-02-16T06:19:00;43975.03;;;-146.31;100.00
2036;BME280;23642;42.658;23.350;2023-02-16T06:21:29;44040.91;;;-146.31;100.00
2036;BME280;23642;42.658;23.350;2023-02-16T06:23:55;44063.53;;;-146.31;100.00
2036;BME280;23642;42.658;23.350;2023-02-16T06:26:23;44110.88;;;-146.31;100.00
2036;BME280;23642;42.658;23.350;2023-02-16T06:28:50;44162.34;;;-146.31;100.00
2036;BME280;23642;42.658;23.350;2023-02-16T06:31:16;44283.81;;;-146.31;100.00
2036;BME280;23642;42.658;23.350;2023-02-16T06:33:43;44436.16;;;-146.31;100.00
2036;BME280;23642;42.658;23.350;2023-02-16T06:36:10;44518.50;;;-146.31;100.00
2036;BME280;23642;42.658;23.350;2023-02-16T06:38:39;44751.16;;;-146.31;100.00
2036;BME280;23642;42.658;23.350;2023-02-16T06:41:05;44909.69;;;-146.31;100.00
2036;BME280;23642;42.658;23.350;2023-02-16T06:43:32;44973.53;;;-146.31;100.00
2036;BME280;23642;42.658;23.350;2023-02-16T06:46:00;45033.22;;;-146.31;100.00
2036;BME280;23642;42.658;23.350;2023-02-16T06:48:27;45070.28;;;-146.31;100.00
2036;BME280;23642;42.658;23.350;2023-02-16T06:50:53;45177.38;;;-146.31;100.00
2036;BME280;23642;42.658;23.350;2023-02-16T06:53:24;45272.09;;;-146.31;100.00
2036;BME280;23642;42.658;23.350;2023-02-16T06:55:52;45440.97;;;-146.31;100.00
2036;BME280;23642;42.658;23.350;2023-02-16T06:58:19;45564.53;;;-146.31;100.00
2036;BME280;23642;42.658;23.350;2023-02-16T07:00:46;45723.09;;;-146.31;100.00
2036;BME280;23642;42.658;23.350;2023-02-16T07:03:13;45974.38;;;-146.31;100.00
2036;BME280;23642;42.658;23.350;2023-02-16T07:05:39;46277.16;;;-146.31;100.00
2036;BME280;23642;42.658;23.350;2023-02-16T07:08:10;46555.25;;;-146.31;99.96
2036;BME280;23642;42.658;23.350;2023-02-16T07:10:37;46895.16;;;-146.31;98.78
2036;BME280;23642;42.658;23.350;2023-02-16T07:13:08;47270.16;;;-146.31;97.94
2036;BME280;23642;42.658;23.350;2023-02-16T07:15:35;47529.78;;;-146.31;96.97
2036;BME280;23642;42.658;23.350;2023-02-16T07:21:17;47863.59;;;-146.31;96.54
2036;BME280;23642;42.658;23.350;2023-02-16T07:23:44;48073.81;;;-146.31;95.58
2036;BME280;23642;42.658;23.350;2023-02-16T07:26:11;48195.41;;;-146.31;94.92
2036;BME280;23642;42.658;23.350;2023-02-16T07:28:39;48424.19;;;-146.31;94.27
2036;BME280;23642;42.658;23.350;2023-02-16T07:31:07;48514.88;;;-146.31;94.44
2036;BME280;23642;42.658;23.350;2023-02-16T07:33:34;48560.25;;;-146.31;94.09
2036;BME280;23642;42.658;23.350;2023-02-16T07:36:01;48655.06;;;-146.31;93.75
2036;BME280;23642;42.658;23.350;2023-02-16T07:38:28;48774.63;;;-146.31;93.10
2036;BME280;23642;42.658;23.350;2023-02-16T07:40:56;49166.28;;;-146.31;90.57
2036;BME280;23642;42.658;23.350;2023-02-16T07:43:23;49718.84;;;-146.31;88.24
2036;BME280;23642;42.658;23.350;2023-02-16T07:45:52;49817.84;;;-146.31;88.41
2036;BME280;23642;42.658;23.350;2023-02-16T07:48:21;49902.38;;;-146.31;88.64
2036;BME280;23642;42.658;23.350;2023-02-16T07:50:48;49906.50;;;-146.31;87.89
2036;BME280;23642;42.658;23.350;2023-02-16T07:53:15;50170.44;;;-146.31;87.22
2036;BME280;23642;42.658;23.350;2023-02-16T07:55:43;50314.81;;;-146.31;86.44
2036;BME280;23642;42.658;23.350;2023-02-16T07:58:11;50450.94;;;-146.31;85.69
2036;BME280;23642;42.658;23.350;2023-02-16T08:00:53;50560.25;;;-146.31;84.69
2036;BME280;23642;42.658;23.350;2023-02-16T08:03:23;50797.44;;;-146.31;83.81
2036;BME280;23642;42.658;23.350;2023-02-16T08:05:51;50832.50;;;-146.31;84.29
2036;BME280;23642;42.658;23.350;2023-02-16T08:08:21;50968.63;;;-146.31;82.98
2036;BME280;23642;42.658;23.350;2023-02-16T08:11:14;51014.00;;;-146.31;83.79
2036;BME280;23642;42.658;23.350;2023-02-16T08:13:58;51119.22;;;-146.31;82.36
2036;BME280;23642;42.658;23.350;2023-02-16T08:16:28;51185.22;;;-146.31;82.64
2036;BME280;23642;42.658;23.350;2023-02-16T08:18:55;51212.03;;;-146.31;82.44
2036;BME280;23642;42.658;23.350;2023-02-16T08:21:24;51230.59;;;-146.31;82.75
2036;BME280;23642;42.658;23.350;2023-02-16T08:23:54;51265.69;;;-146.31;83.01
2036;BME280;23642;42.658;23.350;2023-02-16T08:26:22;51368.81;;;-146.31;81.17
2036;BME280;23642;42.658;23.350;2023-02-16T08:28:49;51492.59;;;-146.31;81.47
2036;BME280;23642;42.658;23.350;2023-02-16T08:31:19;51443.09;;;-146.31;81.07
2036;BME280;23642;42.658;23.350;2023-02-16T08:33:49;51513.22;;;-146.31;80.48
2036;BME280;23642;42.658;23.350;2023-02-16T08:36:16;51581.31;;;-146.31;80.41
2036;BME280;23642;42.658;23.350;2023-02-16T08:38:43;51645.28;;;-146.31;80.59
2036;BME280;23642;42.658;23.350;2023-02-16T08:41:10;51649.41;;;-146.31;79.59
2036;BME280;23642;42.658;23.350;2023-02-16T08:43:37;51690.66;;;-146.31;79.64
2036;BME280;23642;42.658;23.350;2023-02-16T08:46:05;51700.97;;;-146.31;79.66
2036;BME280;23642;42.658;23.350;2023-02-16T08:48:33;51752.56;;;-146.31;78.74
2036;BME280;23642;42.658;23.350;2023-02-16T08:51:02;51781.44;;;-146.31;79.72
2036;BME280;23642;42.658;23.350;2023-02-16T08:53:33;51773.19;;;-146.31;79.19
2036;BME280;23642;42.658;23.350;2023-02-16T08:56:02;51822.69;;;-146.31;79.04
2036;BME280;23642;42.658;23.350;2023-02-16T08:58:31;51830.94;;;-146.31;78.82
2036;BME280;23642;42.658;23.350;2023-02-16T09:02:24;51863.97;;;-146.31;78.15
2036;BME280;23642;42.658;23.350;2023-02-16T09:08:29;51998.09;;;-146.31;77.65
2036;BME280;23642;42.658;23.350;2023-02-16T09:11:00;51958.88;;;-146.31;78.20
2036;BME280;23642;42.658;23.350;2023-02-16T09:13:50;51987.75;;;-146.31;77.70
2036;BME280;23642;42.658;23.350;2023-02-16T09:16:28;52053.78;;;-146.31;76.55
2036;BME280;23642;42.658;23.350;2023-02-16T09:19:00;52022.84;;;-146.31;77.55
2036;BME280;23642;42.658;23.350;2023-02-16T09:21:27;52062.03;;;-146.31;76.80
2036;BME280;23642;42.658;23.350;2023-02-16T09:24:00;52097.13;;;-146.31;76.42
2036;BME280;23642;42.658;23.350;2023-02-16T09:26:30;52103.31;;;-146.31;76.77
2036;BME280;23642;42.658;23.350;2023-02-16T09:28:59;52099.19;;;-146.31;77.23
2036;BME280;23642;42.658;23.350;2023-02-16T09:31:27;52144.59;;;-146.31;75.33
2036;BME280;23642;42.658;23.350;2023-02-16T09:33:57;52185.84;;;-146.31;75.50
2036;BME280;23642;42.658;23.350;2023-02-16T09:36:24;52202.34;;;-146.31;75.51
2036;BME280;23642;42.658;23.350;2023-02-16T09:38:54;52284.91;;;-146.31;75.11
2036;BME280;23642;42.658;23.350;2023-02-16T09:41:35;52245.69;;;-146.31;76.10
2036;BME280;23642;42.658;23.350;2023-02-16T09:44:16;52260.13;;;-146.31;76.52
2036;BME280;23642;42.658;23.350;2023-02-16T09:46:49;52227.13;;;-146.31;76.72
2036;BME280;23642;42.658;23.350;2023-02-16T09:49:23;52229.19;;;-146.31;76.34
2036;BME280;23642;42.658;23.350;2023-02-16T09:52:00;52307.59;;;-146.31;75.60
2036;BME280;23642;42.658;23.350;2023-02-16T09:54:34;52272.50;;;-146.31;75.43
2036;BME280;23642;42.658;23.350;2023-02-16T09:57:14;52291.09;;;-146.31;74.90
2036;BME280;23642;42.658;23.350;2023-02-16T09:59:49;52305.53;;;-146.31;75.34
2036;BME280;23642;42.658;23.350;2023-02-16T10:02:33;52307.59;;;-146.31;75.19
2036;BME280;23642;42.658;23.350;2023-02-16T10:05:15;52332.34;;;-146.31;73.77
2036;BME280;23642;42.658;23.350;2023-02-16T10:08:00;52342.69;;;-146.31;74.41
2036;BME280;23642;42.658;23.350;2023-02-16T10:10:46;52373.63;;;-146.31;73.71
2036;BME280;23642;42.658;23.350;2023-02-16T10:13:22;52396.31;;;-146.31;73.72
2036;BME280;23642;42.658;23.350;2023-02-16T10:16:01;52377.75;;;-146.31;74.80
2036;BME280;23642;42.658;23.350;2023-02-16T10:18:45;52400.47;;;-146.31;73.39
2036;BME280;23642;42.658;23.350;2023-02-16T10:21:24;52437.59;;;-146.31;72.60
2036;BME280;23642;42.658;23.350;2023-02-16T10:23:56;52513.97;;;-146.31;70.66
2036;BME280;23642;42.658;23.350;2023-02-16T10:26:31;52623.34;;;-146.31;70.52
2036;BME280;23642;42.658;23.350;2023-02-16T10:29:09;52615.06;;;-146.31;71.25
2036;BME280;23642;42.658;23.350;2023-02-16T10:31:40;52650.16;;;-146.31;69.93
2036;BME280;23642;42.658;23.350;2023-02-16T10:34:20;52681.13;;;-146.31;70.46
2036;BME280;23642;42.658;23.350;2023-02-16T10:37:15;52734.78;;;-146.31;69.41
2036;BME280;23642;42.658;23.350;2023-02-16T10:39:47;52759.53;;;-146.31;69.74
2036;BME280;23642;42.658;23.350;2023-02-16T10:42:22;52817.31;;;-146.31;69.48
2036;BME280;23642;42.658;23.350;2023-02-16T10:44:57;52780.19;;;-146.31;68.73
2036;BME280;23642;42.658;23.350;2023-02-16T10:47:30;52792.56;;;-146.31;68.45
2036;BME280;23642;42.658;23.350;2023-02-16T10:49:58;52823.53;;;-146.31;68.13
2036;BME280;23642;42.658;23.350;2023-02-16T10:52:29;52833.84;;;-146.31;68.49
2036;BME280;23642;42.658;23.350;2023-02-16T10:54:58;52862.72;;;-146.31;67.99
2036;BME280;23642;42.658;23.350;2023-02-16T10:57:26;52877.19;;;-146.31;67.03
2036;BME280;23642;42.658;23.350;2023-02-16T10:59:56;52924.66;;;-146.31;67.12
2036;BME280;23642;42.658;23.350;2023-02-16T11:02:27;53005.16;;;-146.31;65.60
2036;BME280;23642;42.658;23.350;2023-02-16T11:04:57;53060.88;;;-146.31;65.74
2036;BME280;23642;42.658;23.350;2023-02-16T11:07:26;53062.94;;;-146.31;66.00
2036;BME280;23642;42.658;23.350;2023-02-16T11:09:55;53079.44;;;-146.31;66.29
2036;BME280;23642;42.658;23.350;2023-02-16T11:12:26;53073.25;;;-146.31;65.40
2036;BME280;23642;42.658;23.350;2023-02-16T11:14:58;53081.50;;;-146.31;64.95
2036;BME280;23642;42.658;23.350;2023-02-16T11:17:26;53110.41;;;-146.31;65.43
2036;BME280;23642;42.658;23.350;2023-02-16T11:19:55;53131.03;;;-146.31;64.68
2036;BME280;23642;42.658;23.350;2023-02-16T11:22:29;53188.84;;;-146.31;64.49
2036;BME280;23642;42.658;23.350;2023-02-16T11:25:16;53190.91;;;-146.31;61.96
2036;BME280;23642;42.658;23.350;2023-02-16T11:27:49;53201.22;;;-146.31;59.91
2036;BME280;23642;42.658;23.350;2023-02-16T11:30:27;53271.41;;;-146.31;59.57
2036;BME280;23642;42.658;23.350;2023-02-16T11:32:57;53240.44;;;-146.31;59.67
2036;BME280;23642;42.658;23.350;2023-02-16T11:35:26;53213.59;;;-146.31;59.93
2036;BME280;23642;42.658;23.350;2023-02-16T11:37:53;53215.66;;;-146.31;58.66
2036;BME280;23642;42.658;23.350;2023-02-16T11:40:22;53259.03;;;-146.31;58.03
2036;BME280;23642;42.658;23.350;2023-02-16T11:42:51;53296.16;;;-146.31;56.92
2036;BME280;23642;42.658;23.350;2023-02-16T11:45:26;53339.53;;;-146.31;56.15
2036;BME280;23642;42.658;23.350;2023-02-16T11:47:55;53337.47;;;-146.31;55.03
2036;BME280;23642;42.658;23.350;2023-02-16T11:50:24;53399.38;;;-146.31;54.57
2036;BME280;23642;42.658;23.350;2023-02-16T11:52:55;53432.41;;;-146.31;54.68
2036;BME280;23642;42.658;23.350;2023-02-16T11:55:26;53428.28;;;-146.31;54.55
2036;BME280;23642;42.658;23.350;2023-02-16T11:58:12;53484.00;;;-146.31;53.66
2036;BME280;23642;42.658;23.350;2023-02-16T12:00:45;53510.84;;;-146.31;54.18
2036;BME280;23642;42.658;23.350;2023-02-16T12:03:28;53543.88;;;-146.31;54.07
2036;BME280;23642;42.658;23.350;2023-02-16T12:06:08;53548.00;;;-146.31;53.36
2036;BME280;23642;42.658;23.350;2023-02-16T12:08:47;53578.97;;;-146.31;53.70
2036;BME280;23642;42.658;23.350;2023-02-16T12:11:24;53595.47;;;-146.31;52.72
2036;BME280;23642;42.658;23.350;2023-02-16T12:14:02;53618.19;;;-146.31;52.66
2036;BME280;23642;42.658;23.350;2023-02-16T12:16:40;53638.84;;;-146.31;52.25
2036;BME280;23642;42.658;23.350;2023-02-16T12:19:22;53630.56;;;-146.31;51.91
2036;BME280;23642;42.658;23.350;2023-02-16T12:21:51;53667.75;;;-146.31;52.48
2036;BME280;23642;42.658;23.350;2023-02-16T12:24:29;53688.38;;;-146.31;51.53
2036;BME280;23642;42.658;23.350;2023-02-16T12:27:01;53723.47;;;-146.31;51.10
2036;BME280;23642;42.658;23.350;2023-02-16T12:29:36;53684.25;;;-146.31;50.69
2036;BME280;23642;42.658;23.350;2023-02-16T12:35:32;53770.97;;;-146.31;49.92
2036;BME280;23642;42.658;23.350;2023-02-16T12:38:10;53801.91;;;-146.31;50.46
2036;BME280;23642;42.658;23.350;2023-02-16T12:40:50;53845.28;;;-146.31;49.89
2036;BME280;23642;42.658;23.350;2023-02-16T12:43:33;53824.63;;;-146.31;49.43
2036;BME280;23642;42.658;23.350;2023-02-16T12:46:08;53832.88;;;-146.31;49.32
2036;BME280;23642;42.658;23.350;2023-02-16T12:48:41;53894.81;;;-146.31;48.58
2036;BME280;23642;42.658;23.350;2023-02-16T12:51:14;53892.75;;;-146.31;49.45
2036;BME280;23642;42.658;23.350;2023-02-16T12:53:47;53903.09;;;-146.31;49.57
2036;BME280;23642;42.658;23.350;2023-02-16T12:56:19;53915.47;;;-146.31;48.69
2036;BME280;23642;42.658;23.350;2023-02-16T12:58:50;53956.75;;;-146.31;48.04
2036;BME280;23642;42.658;23.350;2023-02-16T13:01:24;53985.66;;;-146.31;47.64
2036;BME280;23642;42.658;23.350;2023-02-16T13:03:56;54037.28;;;-146.31;47.44
2036;BME280;23642;42.658;23.350;2023-02-16T13:06:28;54012.50;;;-146.31;47.29
2036;BME280;23642;42.658;23.350;2023-02-16T13:09:04;54086.81;;;-146.31;48.09
2036;BME280;23642;42.658;23.350;2023-02-16T13:11:39;54080.63;;;-146.31;47.53
2036;BME280;23642;42.658;23.350;2023-02-16T13:14:13;54105.41;;;-146.31;48.08
2036;BME280;23642;42.658;23.350;2023-02-16T13:16:46;54074.44;;;-146.31;47.70